Terminal Aerodrome Forecast
Issued by NWS

Home | Current Version | Previous Version | Text Only | Print | Product List | Glossary On
Versions: 1 2 3 4 5 6 7 8 9 10 11 12 13
000
FTUS46 KMTR 271000 AAA
TAFSJC
TAF AMD
KSJC 271027Z 2710/2806 14008KT P6SM BKN110
      TEMPO 2710/2712 17015G20KT
     FM272200 20006KT P6SM BKN200=

USA.gov is the U.S. government's official web portal to all federal, state and local government web resources and services.